sensor_id;sensor_type;location;lat;lon;timestamp;P1;durP1;ratioP1;P2;durP2;ratioP2
3447;SDS011;1738;49.500;17.736;2022-10-16T00:02:22;14.93;;;10.97;;
3447;SDS011;1738;49.500;17.736;2022-10-16T00:04:48;18.23;;;11.77;;
3447;SDS011;1738;49.500;17.736;2022-10-16T00:07:14;18.57;;;11.50;;
3447;SDS011;1738;49.500;17.736;2022-10-16T00:09:40;16.90;;;12.20;;
3447;SDS011;1738;49.500;17.736;2022-10-16T00:12:06;16.00;;;11.10;;
3447;SDS011;1738;49.500;17.736;2022-10-16T00:14:32;18.00;;;11.40;;
3447;SDS011;1738;49.500;17.736;2022-10-16T00:16:58;12.75;;;10.27;;
3447;SDS011;1738;49.500;17.736;2022-10-16T00:19:23;14.57;;;10.30;;
3447;SDS011;1738;49.500;17.736;2022-10-16T00:21:49;18.93;;;12.00;;
3447;SDS011;1738;49.500;17.736;2022-10-16T00:24:15;23.47;;;11.13;;
3447;SDS011;1738;49.500;17.736;2022-10-16T00:26:41;13.33;;;10.73;;
3447;SDS011;1738;49.500;17.736;2022-10-16T00:29:07;14.00;;;9.90;;
3447;SDS011;1738;49.500;17.736;2022-10-16T00:31:33;13.23;;;10.63;;
3447;SDS011;1738;49.500;17.736;2022-10-16T00:33:58;25.50;;;12.27;;
3447;SDS011;1738;49.500;17.736;2022-10-16T00:36:25;15.50;;;10.70;;
3447;SDS011;1738;49.500;17.736;2022-10-16T00:38:51;15.03;;;10.80;;
3447;SDS011;1738;49.500;17.736;2022-10-16T00:41:16;16.70;;;12.10;;
3447;SDS011;1738;49.500;17.736;2022-10-16T00:43:44;15.07;;;10.77;;
3447;SDS011;1738;49.500;17.736;2022-10-16T00:46:13;16.93;;;10.97;;
3447;SDS011;1738;49.500;17.736;2022-10-16T00:48:36;18.13;;;11.50;;
3447;SDS011;1738;49.500;17.736;2022-10-16T00:51:02;20.77;;;12.70;;
3447;SDS011;1738;49.500;17.736;2022-10-16T00:53:28;16.03;;;12.23;;
3447;SDS011;1738;49.500;17.736;2022-10-16T00:55:54;14.83;;;10.10;;
3447;SDS011;1738;49.500;17.736;2022-10-16T00:58:20;23.30;;;13.20;;
3447;SDS011;1738;49.500;17.736;2022-10-16T01:00:46;15.07;;;11.33;;
3447;SDS011;1738;49.500;17.736;2022-10-16T01:05:45;19.37;;;12.53;;
3447;SDS011;1738;49.500;17.736;2022-10-16T01:08:12;16.03;;;11.30;;
3447;SDS011;1738;49.500;17.736;2022-10-16T01:10:39;16.77;;;11.17;;
3447;SDS011;1738;49.500;17.736;2022-10-16T01:13:06;14.90;;;11.00;;
3447;SDS011;1738;49.500;17.736;2022-10-16T01:15:34;16.50;;;12.03;;
3447;SDS011;1738;49.500;17.736;2022-10-16T01:18:01;13.90;;;11.17;;
3447;SDS011;1738;49.500;17.736;2022-10-16T01:20:27;15.77;;;11.30;;
3447;SDS011;1738;49.500;17.736;2022-10-16T01:25:29;17.97;;;11.20;;
3447;SDS011;1738;49.500;17.736;2022-10-16T01:27:51;14.97;;;11.00;;
3447;SDS011;1738;49.500;17.736;2022-10-16T01:30:18;21.30;;;11.93;;
3447;SDS011;1738;49.500;17.736;2022-10-16T01:32:46;18.23;;;11.73;;
3447;SDS011;1738;49.500;17.736;2022-10-16T01:35:14;19.27;;;11.38;;
3447;SDS011;1738;49.500;17.736;2022-10-16T01:37:39;14.33;;;11.60;;
3447;SDS011;1738;49.500;17.736;2022-10-16T01:40:05;17.13;;;11.80;;
3447;SDS011;1738;49.500;17.736;2022-10-16T01:42:32;18.80;;;10.70;;
3447;SDS011;1738;49.500;17.736;2022-10-16T01:44:56;15.97;;;10.23;;
3447;SDS011;1738;49.500;17.736;2022-10-16T01:47:22;19.87;;;11.48;;
3447;SDS011;1738;49.500;17.736;2022-10-16T01:49:47;17.27;;;11.07;;
3447;SDS011;1738;49.500;17.736;2022-10-16T01:52:15;18.17;;;12.30;;
3447;SDS011;1738;49.500;17.736;2022-10-16T01:54:40;15.30;;;10.63;;
3447;SDS011;1738;49.500;17.736;2022-10-16T01:57:05;12.87;;;11.00;;
3447;SDS011;1738;49.500;17.736;2022-10-16T01:59:31;19.40;;;12.33;;
3447;SDS011;1738;49.500;17.736;2022-10-16T02:01:58;15.90;;;12.07;;
3447;SDS011;1738;49.500;17.736;2022-10-16T02:04:31;17.23;;;10.97;;
3447;SDS011;1738;49.500;17.736;2022-10-16T02:06:58;18.80;;;12.30;;
3447;SDS011;1738;49.500;17.736;2022-10-16T02:09:24;14.73;;;11.00;;
3447;SDS011;1738;49.500;17.736;2022-10-16T02:11:50;14.90;;;12.43;;
3447;SDS011;1738;49.500;17.736;2022-10-16T02:14:16;18.87;;;11.70;;
3447;SDS011;1738;49.500;17.736;2022-10-16T02:16:44;24.07;;;11.40;;
3447;SDS011;1738;49.500;17.736;2022-10-16T02:19:08;15.00;;;11.37;;
3447;SDS011;1738;49.500;17.736;2022-10-16T02:21:43;16.27;;;11.20;;
3447;SDS011;1738;49.500;17.736;2022-10-16T02:24:09;13.40;;;11.13;;
3447;SDS011;1738;49.500;17.736;2022-10-16T02:26:41;15.67;;;11.13;;
3447;SDS011;1738;49.500;17.736;2022-10-16T02:29:04;18.30;;;11.53;;
3447;SDS011;1738;49.500;17.736;2022-10-16T02:31:29;18.83;;;10.87;;
3447;SDS011;1738;49.500;17.736;2022-10-16T02:33:56;15.83;;;11.10;;
3447;SDS011;1738;49.500;17.736;2022-10-16T02:36:21;17.33;;;11.63;;
3447;SDS011;1738;49.500;17.736;2022-10-16T02:38:47;23.03;;;10.93;;
3447;SDS011;1738;49.500;17.736;2022-10-16T02:41:13;13.30;;;11.00;;
3447;SDS011;1738;49.500;17.736;2022-10-16T02:43:38;16.30;;;10.57;;
3447;SDS011;1738;49.500;17.736;2022-10-16T02:46:04;15.40;;;11.43;;
3447;SDS011;1738;49.500;17.736;2022-10-16T02:48:30;21.80;;;12.20;;
3447;SDS011;1738;49.500;17.736;2022-10-16T02:50:56;16.40;;;10.37;;
3447;SDS011;1738;49.500;17.736;2022-10-16T02:53:22;16.20;;;11.80;;
3447;SDS011;1738;49.500;17.736;2022-10-16T02:55:48;13.93;;;10.80;;
3447;SDS011;1738;49.500;17.736;2022-10-16T02:58:14;12.23;;;10.25;;
3447;SDS011;1738;49.500;17.736;2022-10-16T03:00:40;14.80;;;11.60;;
3447;SDS011;1738;49.500;17.736;2022-10-16T03:03:06;20.33;;;12.33;;
3447;SDS011;1738;49.500;17.736;2022-10-16T03:05:32;21.40;;;12.90;;
3447;SDS011;1738;49.500;17.736;2022-10-16T03:07:58;15.87;;;11.10;;
3447;SDS011;1738;49.500;17.736;2022-10-16T03:10:23;14.38;;;11.00;;
3447;SDS011;1738;49.500;17.736;2022-10-16T03:12:49;16.07;;;10.33;;
3447;SDS011;1738;49.500;17.736;2022-10-16T03:15:16;21.77;;;10.43;;
3447;SDS011;1738;49.500;17.736;2022-10-16T03:17:42;14.90;;;10.50;;
3447;SDS011;1738;49.500;17.736;2022-10-16T03:20:08;14.27;;;10.70;;
3447;SDS011;1738;49.500;17.736;2022-10-16T03:22:34;16.23;;;10.60;;
3447;SDS011;1738;49.500;17.736;2022-10-16T03:25:00;14.70;;;10.40;;
3447;SDS011;1738;49.500;17.736;2022-10-16T03:27:26;14.20;;;9.53;;
3447;SDS011;1738;49.500;17.736;2022-10-16T03:29:52;18.33;;;11.80;;
3447;SDS011;1738;49.500;17.736;2022-10-16T03:32:19;18.73;;;10.97;;
3447;SDS011;1738;49.500;17.736;2022-10-16T03:34:45;15.27;;;11.33;;
3447;SDS011;1738;49.500;17.736;2022-10-16T03:37:11;17.50;;;11.83;;
3447;SDS011;1738;49.500;17.736;2022-10-16T03:39:37;14.03;;;9.60;;
3447;SDS011;1738;49.500;17.736;2022-10-16T03:42:03;17.47;;;11.70;;
3447;SDS011;1738;49.500;17.736;2022-10-16T03:44:28;16.30;;;11.50;;
3447;SDS011;1738;49.500;17.736;2022-10-16T03:46:55;15.43;;;11.10;;
3447;SDS011;1738;49.500;17.736;2022-10-16T03:49:22;13.87;;;9.43;;
3447;SDS011;1738;49.500;17.736;2022-10-16T03:51:48;16.20;;;12.10;;
3447;SDS011;1738;49.500;17.736;2022-10-16T03:54:13;14.05;;;10.60;;
3447;SDS011;1738;49.500;17.736;2022-10-16T03:56:39;15.23;;;11.43;;
3447;SDS011;1738;49.500;17.736;2022-10-16T03:59:05;17.17;;;12.33;;
3447;SDS011;1738;49.500;17.736;2022-10-16T04:01:31;19.65;;;12.45;;
3447;SDS011;1738;49.500;17.736;2022-10-16T04:03:57;16.53;;;10.70;;
3447;SDS011;1738;49.500;17.736;2022-10-16T04:06:23;12.77;;;10.57;;
3447;SDS011;1738;49.500;17.736;2022-10-16T04:08:48;16.37;;;10.83;;
3447;SDS011;1738;49.500;17.736;2022-10-16T04:11:15;15.88;;;11.23;;
3447;SDS011;1738;49.500;17.736;2022-10-16T04:13:41;22.27;;;11.57;;
3447;SDS011;1738;49.500;17.736;2022-10-16T04:16:06;15.83;;;11.47;;
3447;SDS011;1738;49.500;17.736;2022-10-16T04:18:32;15.10;;;11.47;;
3447;SDS011;1738;49.500;17.736;2022-10-16T04:21:03;11.60;;;10.17;;
3447;SDS011;1738;49.500;17.736;2022-10-16T04:23:28;15.27;;;10.48;;
3447;SDS011;1738;49.500;17.736;2022-10-16T04:25:54;18.90;;;10.27;;
3447;SDS011;1738;49.500;17.736;2022-10-16T04:28:19;15.97;;;10.70;;
3447;SDS011;1738;49.500;17.736;2022-10-16T04:30:45;15.87;;;10.00;;
3447;SDS011;1738;49.500;17.736;2022-10-16T04:33:11;21.43;;;10.50;;
3447;SDS011;1738;49.500;17.736;2022-10-16T04:35:37;23.40;;;10.50;;
3447;SDS011;1738;49.500;17.736;2022-10-16T04:38:03;14.63;;;10.70;;
3447;SDS011;1738;49.500;17.736;2022-10-16T04:40:29;16.23;;;9.77;;
3447;SDS011;1738;49.500;17.736;2022-10-16T04:42:55;18.50;;;11.50;;
3447;SDS011;1738;49.500;17.736;2022-10-16T04:45:20;35.23;;;11.70;;
3447;SDS011;1738;49.500;17.736;2022-10-16T04:47:46;17.67;;;10.90;;
3447;SDS011;1738;49.500;17.736;2022-10-16T04:50:12;14.80;;;11.00;;
3447;SDS011;1738;49.500;17.736;2022-10-16T04:52:38;15.67;;;11.10;;
3447;SDS011;1738;49.500;17.736;2022-10-16T04:55:04;17.80;;;11.33;;
3447;SDS011;1738;49.500;17.736;2022-10-16T04:57:30;16.07;;;10.23;;
3447;SDS011;1738;49.500;17.736;2022-10-16T04:59:56;16.97;;;12.03;;
3447;SDS011;1738;49.500;17.736;2022-10-16T05:02:22;14.40;;;11.10;;
3447;SDS011;1738;49.500;17.736;2022-10-16T05:04:48;16.97;;;12.00;;
3447;SDS011;1738;49.500;17.736;2022-10-16T05:07:13;17.33;;;12.07;;
3447;SDS011;1738;49.500;17.736;2022-10-16T05:09:39;17.33;;;11.53;;
3447;SDS011;1738;49.500;17.736;2022-10-16T05:12:05;18.53;;;11.90;;
3447;SDS011;1738;49.500;17.736;2022-10-16T05:14:31;72.13;;;36.67;;
3447;SDS011;1738;49.500;17.736;2022-10-16T05:16:57;29.57;;;18.30;;
3447;SDS011;1738;49.500;17.736;2022-10-16T05:19:23;23.57;;;14.00;;
3447;SDS011;1738;49.500;17.736;2022-10-16T05:21:49;20.25;;;13.10;;
3447;SDS011;1738;49.500;17.736;2022-10-16T05:24:14;26.33;;;17.53;;
3447;SDS011;1738;49.500;17.736;2022-10-16T05:26:40;23.70;;;17.33;;
3447;SDS011;1738;49.500;17.736;2022-10-16T05:29:06;23.35;;;18.30;;
3447;SDS011;1738;49.500;17.736;2022-10-16T05:31:32;40.07;;;18.50;;
3447;SDS011;1738;49.500;17.736;2022-10-16T05:33:58;20.90;;;16.12;;
3447;SDS011;1738;49.500;17.736;2022-10-16T05:36:24;27.93;;;17.70;;
3447;SDS011;1738;49.500;17.736;2022-10-16T05:38:50;21.17;;;17.20;;
3447;SDS011;1738;49.500;17.736;2022-10-16T05:41:15;25.50;;;14.63;;
3447;SDS011;1738;49.500;17.736;2022-10-16T05:43:41;18.00;;;14.20;;
3447;SDS011;1738;49.500;17.736;2022-10-16T05:46:07;17.30;;;14.40;;
3447;SDS011;1738;49.500;17.736;2022-10-16T05:48:33;20.62;;;15.50;;
3447;SDS011;1738;49.500;17.736;2022-10-16T05:51:01;22.63;;;15.40;;
3447;SDS011;1738;49.500;17.736;2022-10-16T05:53:27;16.43;;;13.17;;
3447;SDS011;1738;49.500;17.736;2022-10-16T05:55:52;15.30;;;11.70;;
3447;SDS011;1738;49.500;17.736;2022-10-16T05:58:17;23.47;;;12.57;;
3447;SDS011;1738;49.500;17.736;2022-10-16T06:00:43;18.50;;;12.10;;
3447;SDS011;1738;49.500;17.736;2022-10-16T06:03:09;18.70;;;13.50;;
3447;SDS011;1738;49.500;17.736;2022-10-16T06:05:35;28.27;;;15.93;;
3447;SDS011;1738;49.500;17.736;2022-10-16T06:08:01;51.93;;;34.90;;
3447;SDS011;1738;49.500;17.736;2022-10-16T06:10:27;38.23;;;26.23;;
3447;SDS011;1738;49.500;17.736;2022-10-16T06:12:53;25.57;;;18.87;;
3447;SDS011;1738;49.500;17.736;2022-10-16T06:15:19;27.40;;;18.60;;
3447;SDS011;1738;49.500;17.736;2022-10-16T06:17:45;30.93;;;18.50;;
3447;SDS011;1738;49.500;17.736;2022-10-16T06:20:11;28.97;;;19.13;;
3447;SDS011;1738;49.500;17.736;2022-10-16T06:22:36;19.43;;;13.87;;
3447;SDS011;1738;49.500;17.736;2022-10-16T06:25:02;38.33;;;22.70;;
3447;SDS011;1738;49.500;17.736;2022-10-16T06:27:28;139.70;;;88.43;;
3447;SDS011;1738;49.500;17.736;2022-10-16T06:29:54;172.00;;;103.17;;
3447;SDS011;1738;49.500;17.736;2022-10-16T06:32:20;57.27;;;35.73;;
3447;SDS011;1738;49.500;17.736;2022-10-16T06:34:46;37.93;;;28.27;;
3447;SDS011;1738;49.500;17.736;2022-10-16T06:37:12;38.90;;;24.33;;
3447;SDS011;1738;49.500;17.736;2022-10-16T06:39:37;26.80;;;22.27;;
3447;SDS011;1738;49.500;17.736;2022-10-16T06:42:03;103.57;;;56.73;;
3447;SDS011;1738;49.500;17.736;2022-10-16T06:44:29;168.20;;;84.40;;
3447;SDS011;1738;49.500;17.736;2022-10-16T06:46:55;34.97;;;20.27;;
3447;SDS011;1738;49.500;17.736;2022-10-16T06:49:21;30.60;;;23.20;;
3447;SDS011;1738;49.500;17.736;2022-10-16T06:51:47;37.67;;;28.17;;
3447;SDS011;1738;49.500;17.736;2022-10-16T06:54:14;45.30;;;26.80;;
3447;SDS011;1738;49.500;17.736;2022-10-16T06:56:39;44.67;;;31.13;;
3447;SDS011;1738;49.500;17.736;2022-10-16T06:59:05;16.07;;;12.17;;
3447;SDS011;1738;49.500;17.736;2022-10-16T07:01:31;17.70;;;11.20;;
3447;SDS011;1738;49.500;17.736;2022-10-16T07:03:57;20.83;;;13.83;;
3447;SDS011;1738;49.500;17.736;2022-10-16T07:06:24;18.30;;;14.90;;
3447;SDS011;1738;49.500;17.736;2022-10-16T07:08:50;16.80;;;12.90;;
3447;SDS011;1738;49.500;17.736;2022-10-16T07:11:17;16.70;;;12.47;;
3447;SDS011;1738;49.500;17.736;2022-10-16T07:13:42;17.20;;;12.10;;
3447;SDS011;1738;49.500;17.736;2022-10-16T07:16:08;22.37;;;15.23;;
3447;SDS011;1738;49.500;17.736;2022-10-16T07:18:34;22.50;;;14.40;;
3447;SDS011;1738;49.500;17.736;2022-10-16T07:21:03;17.00;;;11.37;;
3447;SDS011;1738;49.500;17.736;2022-10-16T07:23:28;15.77;;;12.43;;
3447;SDS011;1738;49.500;17.736;2022-10-16T07:25:54;17.17;;;11.50;;
3447;SDS011;1738;49.500;17.736;2022-10-16T07:28:20;17.00;;;12.97;;
3447;SDS011;1738;49.500;17.736;2022-10-16T07:30:46;17.70;;;14.07;;
3447;SDS011;1738;49.500;17.736;2022-10-16T07:33:11;18.93;;;11.93;;
3447;SDS011;1738;49.500;17.736;2022-10-16T07:35:37;13.98;;;11.60;;
3447;SDS011;1738;49.500;17.736;2022-10-16T07:38:03;18.80;;;13.87;;
3447;SDS011;1738;49.500;17.736;2022-10-16T07:40:29;20.07;;;12.27;;
3447;SDS011;1738;49.500;17.736;2022-10-16T07:42:55;17.40;;;12.53;;
3447;SDS011;1738;49.500;17.736;2022-10-16T07:45:21;14.90;;;11.00;;
3447;SDS011;1738;49.500;17.736;2022-10-16T07:47:47;14.25;;;11.93;;
3447;SDS011;1738;49.500;17.736;2022-10-16T07:50:12;13.53;;;10.70;;
3447;SDS011;1738;49.500;17.736;2022-10-16T07:52:38;17.10;;;9.70;;
3447;SDS011;1738;49.500;17.736;2022-10-16T07:55:05;13.68;;;10.45;;
3447;SDS011;1738;49.500;17.736;2022-10-16T07:57:30;12.93;;;8.97;;
3447;SDS011;1738;49.500;17.736;2022-10-16T07:59:56;14.70;;;9.47;;
3447;SDS011;1738;49.500;17.736;2022-10-16T08:02:22;14.00;;;10.57;;
3447;SDS011;1738;49.500;17.736;2022-10-16T08:04:48;12.60;;;10.70;;
3447;SDS011;1738;49.500;17.736;2022-10-16T08:07:14;19.07;;;10.67;;
3447;SDS011;1738;49.500;17.736;2022-10-16T08:09:40;13.82;;;10.18;;
3447;SDS011;1738;49.500;17.736;2022-10-16T08:12:06;16.33;;;9.33;;
3447;SDS011;1738;49.500;17.736;2022-10-16T08:14:32;19.03;;;9.57;;
3447;SDS011;1738;49.500;17.736;2022-10-16T08:16:58;17.83;;;10.53;;
3447;SDS011;1738;49.500;17.736;2022-10-16T08:19:23;12.50;;;10.00;;
3447;SDS011;1738;49.500;17.736;2022-10-16T08:21:50;12.40;;;9.50;;
3447;SDS011;1738;49.500;17.736;2022-10-16T08:24:16;15.50;;;10.13;;
3447;SDS011;1738;49.500;17.736;2022-10-16T08:26:42;14.93;;;10.70;;
3447;SDS011;1738;49.500;17.736;2022-10-16T08:29:08;13.67;;;9.60;;
3447;SDS011;1738;49.500;17.736;2022-10-16T08:31:33;13.97;;;9.80;;
3447;SDS011;1738;49.500;17.736;2022-10-16T08:33:59;9.83;;;8.80;;
3447;SDS011;1738;49.500;17.736;2022-10-16T08:36:25;10.70;;;8.57;;
3447;SDS011;1738;49.500;17.736;2022-10-16T08:38:51;15.03;;;10.13;;
3447;SDS011;1738;49.500;17.736;2022-10-16T08:41:45;13.50;;;10.10;;
3447;SDS011;1738;49.500;17.736;2022-10-16T08:46:50;11.37;;;9.07;;
3447;SDS011;1738;49.500;17.736;2022-10-16T08:49:12;12.23;;;9.53;;
3447;SDS011;1738;49.500;17.736;2022-10-16T08:51:38;12.80;;;9.57;;
3447;SDS011;1738;49.500;17.736;2022-10-16T08:54:04;13.47;;;9.50;;
3447;SDS011;1738;49.500;17.736;2022-10-16T08:56:29;14.70;;;10.17;;
3447;SDS011;1738;49.500;17.736;2022-10-16T08:58:57;19.08;;;9.43;;
3447;SDS011;1738;49.500;17.736;2022-10-16T09:01:22;12.10;;;9.17;;
3447;SDS011;1738;49.500;17.736;2022-10-16T09:06:25;10.93;;;8.60;;
3447;SDS011;1738;49.500;17.736;2022-10-16T09:11:25;11.53;;;9.30;;
3447;SDS011;1738;49.500;17.736;2022-10-16T09:13:51;11.37;;;9.23;;
3447;SDS011;1738;49.500;17.736;2022-10-16T09:16:22;13.17;;;9.70;;
3447;SDS011;1738;49.500;17.736;2022-10-16T09:18:53;14.30;;;9.00;;
3447;SDS011;1738;49.500;17.736;2022-10-16T09:21:19;22.70;;;10.60;;
3447;SDS011;1738;49.500;17.736;2022-10-16T09:23:45;18.30;;;9.50;;
3447;SDS011;1738;49.500;17.736;2022-10-16T09:26:12;10.83;;;8.60;;
3447;SDS011;1738;49.500;17.736;2022-10-16T09:28:37;10.37;;;8.53;;
3447;SDS011;1738;49.500;17.736;2022-10-16T09:31:03;12.23;;;9.00;;
3447;SDS011;1738;49.500;17.736;2022-10-16T09:33:33;13.93;;;9.30;;
3447;SDS011;1738;49.500;17.736;2022-10-16T09:35:56;11.50;;;8.43;;
3447;SDS011;1738;49.500;17.736;2022-10-16T09:38:25;13.25;;;9.55;;
3447;SDS011;1738;49.500;17.736;2022-10-16T09:40:49;17.00;;;8.70;;
3447;SDS011;1738;49.500;17.736;2022-10-16T09:43:21;11.70;;;8.67;;
3447;SDS011;1738;49.500;17.736;2022-10-16T09:48:17;15.43;;;9.27;;
3447;SDS011;1738;49.500;17.736;2022-10-16T09:50:42;12.63;;;10.60;;
3447;SDS011;1738;49.500;17.736;2022-10-16T09:53:14;13.43;;;9.27;;
3447;SDS011;1738;49.500;17.736;2022-10-16T09:55:36;13.17;;;8.60;;
3447;SDS011;1738;49.500;17.736;2022-10-16T09:58:02;12.70;;;10.53;;
3447;SDS011;1738;49.500;17.736;2022-10-16T10:00:28;9.73;;;8.00;;
3447;SDS011;1738;49.500;17.736;2022-10-16T10:02:54;16.03;;;9.70;;
3447;SDS011;1738;49.500;17.736;2022-10-16T10:05:21;12.30;;;8.80;;
3447;SDS011;1738;49.500;17.736;2022-10-16T10:07:46;11.80;;;8.77;;
3447;SDS011;1738;49.500;17.736;2022-10-16T10:10:21;10.23;;;8.77;;
3447;SDS011;1738;49.500;17.736;2022-10-16T10:12:46;12.70;;;8.73;;
3447;SDS011;1738;49.500;17.736;2022-10-16T10:15:12;10.63;;;8.80;;
3447;SDS011;1738;49.500;17.736;2022-10-16T10:20:27;11.90;;;8.43;;
3447;SDS011;1738;49.500;17.736;2022-10-16T10:22:52;13.30;;;10.03;;
3447;SDS011;1738;49.500;17.736;2022-10-16T10:25:19;19.23;;;9.27;;
3447;SDS011;1738;49.500;17.736;2022-10-16T10:27:50;11.55;;;8.70;;
3447;SDS011;1738;49.500;17.736;2022-10-16T10:30:15;11.90;;;8.53;;
3447;SDS011;1738;49.500;17.736;2022-10-16T10:32:44;11.10;;;8.93;;
3447;SDS011;1738;49.500;17.736;2022-10-16T10:35:11;11.60;;;9.13;;
3447;SDS011;1738;49.500;17.736;2022-10-16T10:37:37;12.87;;;9.60;;
3447;SDS011;1738;49.500;17.736;2022-10-16T10:40:06;11.47;;;8.90;;
3447;SDS011;1738;49.500;17.736;2022-10-16T10:42:30;12.07;;;8.60;;
3447;SDS011;1738;49.500;17.736;2022-10-16T10:45:03;10.70;;;8.80;;
3447;SDS011;1738;49.500;17.736;2022-10-16T10:47:44;12.33;;;9.97;;
3447;SDS011;1738;49.500;17.736;2022-10-16T10:50:09;11.03;;;9.80;;
3447;SDS011;1738;49.500;17.736;2022-10-16T10:52:37;12.97;;;9.47;;
3447;SDS011;1738;49.500;17.736;2022-10-16T10:55:03;16.20;;;10.47;;
3447;SDS011;1738;49.500;17.736;2022-10-16T10:57:29;12.47;;;10.30;;
3447;SDS011;1738;49.500;17.736;2022-10-16T11:02:37;15.80;;;10.43;;
3447;SDS011;1738;49.500;17.736;2022-10-16T11:05:10;10.83;;;9.43;;
3447;SDS011;1738;49.500;17.736;2022-10-16T11:07:32;21.13;;;9.33;;
3447;SDS011;1738;49.500;17.736;2022-10-16T11:09:58;15.43;;;10.13;;
3447;SDS011;1738;49.500;17.736;2022-10-16T11:12:25;14.53;;;9.73;;
3447;SDS011;1738;49.500;17.736;2022-10-16T11:17:25;16.67;;;9.17;;
3447;SDS011;1738;49.500;17.736;2022-10-16T11:19:54;13.30;;;10.70;;
3447;SDS011;1738;49.500;17.736;2022-10-16T11:22:19;14.40;;;9.60;;
3447;SDS011;1738;49.500;17.736;2022-10-16T11:24:46;13.67;;;9.10;;
3447;SDS011;1738;49.500;17.736;2022-10-16T11:27:12;16.30;;;9.63;;
3447;SDS011;1738;49.500;17.736;2022-10-16T11:29:40;12.33;;;10.40;;
3447;SDS011;1738;49.500;17.736;2022-10-16T11:32:05;11.70;;;10.50;;
3447;SDS011;1738;49.500;17.736;2022-10-16T11:34:34;13.90;;;10.20;;
3447;SDS011;1738;49.500;17.736;2022-10-16T11:37:05;13.90;;;9.67;;
3447;SDS011;1738;49.500;17.736;2022-10-16T11:39:30;12.30;;;10.50;;
3447;SDS011;1738;49.500;17.736;2022-10-16T11:41:59;18.08;;;10.27;;
3447;SDS011;1738;49.500;17.736;2022-10-16T11:45:29;13.57;;;8.93;;
3447;SDS011;1738;49.500;17.736;2022-10-16T11:47:22;13.73;;;10.37;;
3447;SDS011;1738;49.500;17.736;2022-10-16T11:49:44;14.80;;;9.47;;
3447;SDS011;1738;49.500;17.736;2022-10-16T11:57:23;14.30;;;10.83;;
3447;SDS011;1738;49.500;17.736;2022-10-16T11:59:51;14.17;;;10.73;;
3447;SDS011;1738;49.500;17.736;2022-10-16T12:02:28;17.40;;;11.70;;
3447;SDS011;1738;49.500;17.736;2022-10-16T12:05:06;14.13;;;11.10;;
3447;SDS011;1738;49.500;17.736;2022-10-16T12:07:32;13.90;;;10.63;;
3447;SDS011;1738;49.500;17.736;2022-10-16T12:09:58;16.73;;;11.30;;
3447;SDS011;1738;49.500;17.736;2022-10-16T12:12:24;13.80;;;10.70;;
3447;SDS011;1738;49.500;17.736;2022-10-16T12:14:59;14.30;;;11.20;;
3447;SDS011;1738;49.500;17.736;2022-10-16T12:17:24;15.00;;;10.77;;
3447;SDS011;1738;49.500;17.736;2022-10-16T12:22:20;15.50;;;11.57;;
3447;SDS011;1738;49.500;17.736;2022-10-16T12:24:50;14.00;;;11.50;;
3447;SDS011;1738;49.500;17.736;2022-10-16T12:27:21;13.20;;;11.03;;
3447;SDS011;1738;49.500;17.736;2022-10-16T12:29:44;12.18;;;10.88;;
3447;SDS011;1738;49.500;17.736;2022-10-16T12:34:42;11.40;;;10.20;;
3447;SDS011;1738;49.500;17.736;2022-10-16T12:37:10;16.60;;;10.87;;
3447;SDS011;1738;49.500;17.736;2022-10-16T12:39:35;14.57;;;11.50;;
3447;SDS011;1738;49.500;17.736;2022-10-16T12:42:02;13.70;;;10.60;;
3447;SDS011;1738;49.500;17.736;2022-10-16T12:44:26;13.13;;;11.37;;
3447;SDS011;1738;49.500;17.736;2022-10-16T12:46:52;18.73;;;12.23;;
3447;SDS011;1738;49.500;17.736;2022-10-16T12:49:29;17.10;;;12.67;;
3447;SDS011;1738;49.500;17.736;2022-10-16T12:51:48;16.80;;;12.03;;
3447;SDS011;1738;49.500;17.736;2022-10-16T12:54:22;15.53;;;11.00;;
3447;SDS011;1738;49.500;17.736;2022-10-16T12:56:57;14.40;;;10.43;;
3447;SDS011;1738;49.500;17.736;2022-10-16T12:59:21;14.50;;;11.40;;
3447;SDS011;1738;49.500;17.736;2022-10-16T13:04:22;15.10;;;12.07;;
3447;SDS011;1738;49.500;17.736;2022-10-16T13:07:55;17.87;;;13.07;;
3447;SDS011;1738;49.500;17.736;2022-10-16T13:09:31;16.80;;;12.77;;
3447;SDS011;1738;49.500;17.736;2022-10-16T13:12:13;13.40;;;12.00;;
3447;SDS011;1738;49.500;17.736;2022-10-16T13:19:53;16.40;;;11.90;;
3447;SDS011;1738;49.500;17.736;2022-10-16T13:22:21;17.23;;;13.27;;
3447;SDS011;1738;49.500;17.736;2022-10-16T13:25:20;15.23;;;11.23;;
3447;SDS011;1738;49.500;17.736;2022-10-16T13:27:30;16.63;;;11.60;;
3447;SDS011;1738;49.500;17.736;2022-10-16T13:29:53;15.73;;;12.00;;
3447;SDS011;1738;49.500;17.736;2022-10-16T13:32:19;17.53;;;12.03;;
3447;SDS011;1738;49.500;17.736;2022-10-16T13:34:45;20.33;;;13.30;;
3447;SDS011;1738;49.500;17.736;2022-10-16T13:39:42;18.20;;;12.67;;
3447;SDS011;1738;49.500;17.736;2022-10-16T13:42:10;16.07;;;11.37;;
3447;SDS011;1738;49.500;17.736;2022-10-16T13:44:39;15.30;;;11.90;;
3447;SDS011;1738;49.500;17.736;2022-10-16T13:47:03;17.00;;;11.33;;
3447;SDS011;1738;49.500;17.736;2022-10-16T13:49:28;18.83;;;12.47;;
3447;SDS011;1738;49.500;17.736;2022-10-16T13:51:55;14.87;;;12.40;;
3447;SDS011;1738;49.500;17.736;2022-10-16T13:54:20;17.53;;;12.63;;
3447;SDS011;1738;49.500;17.736;2022-10-16T13:56:46;18.00;;;11.77;;
3447;SDS011;1738;49.500;17.736;2022-10-16T14:01:44;15.10;;;11.83;;
3447;SDS011;1738;49.500;17.736;2022-10-16T14:04:10;14.37;;;12.10;;
3447;SDS011;1738;49.500;17.736;2022-10-16T14:06:36;19.33;;;12.50;;
3447;SDS011;1738;49.500;17.736;2022-10-16T14:09:06;18.53;;;11.27;;
3447;SDS011;1738;49.500;17.736;2022-10-16T14:11:31;17.90;;;12.20;;
3447;SDS011;1738;49.500;17.736;2022-10-16T14:13:56;18.63;;;12.30;;
3447;SDS011;1738;49.500;17.736;2022-10-16T14:16:23;15.30;;;12.03;;
3447;SDS011;1738;49.500;17.736;2022-10-16T14:18:53;16.87;;;12.37;;
3447;SDS011;1738;49.500;17.736;2022-10-16T14:21:15;17.90;;;12.67;;
3447;SDS011;1738;49.500;17.736;2022-10-16T14:23:41;21.80;;;13.60;;
3447;SDS011;1738;49.500;17.736;2022-10-16T14:26:15;16.70;;;13.17;;
3447;SDS011;1738;49.500;17.736;2022-10-16T14:28:41;15.27;;;11.93;;
3447;SDS011;1738;49.500;17.736;2022-10-16T14:33:39;17.97;;;11.97;;
3447;SDS011;1738;49.500;17.736;2022-10-16T14:36:06;16.30;;;11.90;;
3447;SDS011;1738;49.500;17.736;2022-10-16T14:38:30;13.40;;;11.13;;
3447;SDS011;1738;49.500;17.736;2022-10-16T14:40:57;22.57;;;14.53;;
3447;SDS011;1738;49.500;17.736;2022-10-16T14:43:24;16.00;;;12.27;;
3447;SDS011;1738;49.500;17.736;2022-10-16T14:45:53;16.90;;;12.63;;
3447;SDS011;1738;49.500;17.736;2022-10-16T14:48:18;18.00;;;12.20;;
3447;SDS011;1738;49.500;17.736;2022-10-16T14:50:44;15.43;;;11.33;;
3447;SDS011;1738;49.500;17.736;2022-10-16T14:53:12;22.73;;;12.00;;
3447;SDS011;1738;49.500;17.736;2022-10-16T14:55:38;15.90;;;12.23;;
3447;SDS011;1738;49.500;17.736;2022-10-16T14:58:04;13.93;;;11.37;;
3447;SDS011;1738;49.500;17.736;2022-10-16T15:00:30;14.02;;;11.27;;
3447;SDS011;1738;49.500;17.736;2022-10-16T15:02:55;16.70;;;11.23;;
3447;SDS011;1738;49.500;17.736;2022-10-16T15:05:24;15.57;;;12.20;;
3447;SDS011;1738;49.500;17.736;2022-10-16T15:07:49;23.73;;;12.13;;
3447;SDS011;1738;49.500;17.736;2022-10-16T15:10:16;18.60;;;12.32;;
3447;SDS011;1738;49.500;17.736;2022-10-16T15:12:41;19.33;;;12.53;;
3447;SDS011;1738;49.500;17.736;2022-10-16T15:17:38;16.27;;;13.03;;
3447;SDS011;1738;49.500;17.736;2022-10-16T15:20:05;19.50;;;12.10;;
3447;SDS011;1738;49.500;17.736;2022-10-16T15:22:31;17.70;;;12.53;;
3447;SDS011;1738;49.500;17.736;2022-10-16T15:24:56;16.30;;;11.90;;